sensor_id;sensor_type;location;lat;lon;timestamp;pressure;altitude;pressure_sealevel;temperature;humidity
24160;BME280;62385;41.594;23.808;2022-11-14T00:00:58;96583.94;;;2.64;86.16
24160;BME280;62385;41.594;23.808;2022-11-14T00:03:43;96580.25;;;2.81;86.18
24160;BME280;62385;41.594;23.808;2022-11-14T00:06:27;96582.09;;;2.93;86.06
24160;BME280;62385;41.594;23.808;2022-11-14T00:09:11;96583.94;;;3.05;85.96
24160;BME280;62385;41.594;23.808;2022-11-14T00:11:55;96589.09;;;3.06;86.01
24160;BME280;62385;41.594;23.808;2022-11-14T00:14:39;96585.31;;;2.84;85.72
24160;BME280;62385;41.594;23.808;2022-11-14T00:17:24;96595.81;;;2.69;85.98
24160;BME280;62385;41.594;23.808;2022-11-14T00:20:10;96585.81;;;2.48;85.32
24160;BME280;62385;41.594;23.808;2022-11-14T00:22:56;96588.63;;;2.59;85.53
24160;BME280;62385;41.594;23.808;2022-11-14T00:25:41;96585.66;;;2.22;85.27
24160;BME280;62385;41.594;23.808;2022-11-14T00:28:26;96584.78;;;2.08;85.02
24160;BME280;62385;41.594;23.808;2022-11-14T00:31:10;96576.00;;;2.09;85.15
24160;BME280;62385;41.594;23.808;2022-11-14T00:33:56;96571.91;;;2.19;84.94
24160;BME280;62385;41.594;23.808;2022-11-14T00:36:40;96562.34;;;2.18;85.97
24160;BME280;62385;41.594;23.808;2022-11-14T00:39:25;96572.34;;;2.40;85.70
24160;BME280;62385;41.594;23.808;2022-11-14T00:42:09;96569.09;;;2.22;85.42
24160;BME280;62385;41.594;23.808;2022-11-14T00:44:53;96568.50;;;2.17;85.17
24160;BME280;62385;41.594;23.808;2022-11-14T00:47:37;96568.81;;;2.26;85.63
24160;BME280;62385;41.594;23.808;2022-11-14T00:50:23;96575.25;;;2.21;85.73
24160;BME280;62385;41.594;23.808;2022-11-14T00:53:07;96572.63;;;2.21;85.65
24160;BME280;62385;41.594;23.808;2022-11-14T00:55:50;96570.50;;;2.27;85.73
24160;BME280;62385;41.594;23.808;2022-11-14T00:58:36;96562.44;;;2.16;86.62
24160;BME280;62385;41.594;23.808;2022-11-14T01:01:21;96575.34;;;2.33;86.37
24160;BME280;62385;41.594;23.808;2022-11-14T01:04:05;96563.81;;;2.36;87.56
24160;BME280;62385;41.594;23.808;2022-11-14T01:06:49;96572.63;;;2.35;86.65
24160;BME280;62385;41.594;23.808;2022-11-14T01:09:33;96564.88;;;2.33;87.24
24160;BME280;62385;41.594;23.808;2022-11-14T01:12:17;96568.69;;;2.42;85.29
24160;BME280;62385;41.594;23.808;2022-11-14T01:15:01;96565.50;;;2.09;84.63
24160;BME280;62385;41.594;23.808;2022-11-14T01:17:46;96559.53;;;2.07;84.63
24160;BME280;62385;41.594;23.808;2022-11-14T01:20:30;96562.50;;;1.86;85.02
24160;BME280;62385;41.594;23.808;2022-11-14T01:23:16;96560.19;;;1.96;85.26
24160;BME280;62385;41.594;23.808;2022-11-14T01:26:07;96557.09;;;1.90;85.00
24160;BME280;62385;41.594;23.808;2022-11-14T01:28:52;96549.50;;;1.99;85.48
24160;BME280;62385;41.594;23.808;2022-11-14T01:31:36;96556.59;;;1.83;85.18
24160;BME280;62385;41.594;23.808;2022-11-14T01:34:20;96549.41;;;1.86;86.31
24160;BME280;62385;41.594;23.808;2022-11-14T01:37:04;96547.72;;;1.71;85.10
24160;BME280;62385;41.594;23.808;2022-11-14T01:39:48;96538.84;;;1.74;85.94
24160;BME280;62385;41.594;23.808;2022-11-14T01:42:32;96535.00;;;1.79;87.12
24160;BME280;62385;41.594;23.808;2022-11-14T01:45:54;96538.34;;;1.67;87.54
24160;BME280;62385;41.594;23.808;2022-11-14T01:54:24;96523.31;;;1.71;85.96
24160;BME280;62385;41.594;23.808;2022-11-14T01:57:10;96529.59;;;1.68;85.90
24160;BME280;62385;41.594;23.808;2022-11-14T01:59:58;96528.28;;;1.75;86.07
24160;BME280;62385;41.594;23.808;2022-11-14T02:02:45;96519.06;;;1.54;85.77
24160;BME280;62385;41.594;23.808;2022-11-14T02:05:29;96520.13;;;1.52;86.65
24160;BME280;62385;41.594;23.808;2022-11-14T02:08:14;96520.06;;;1.37;85.64
24160;BME280;62385;41.594;23.808;2022-11-14T02:10:59;96514.69;;;1.41;86.32
24160;BME280;62385;41.594;23.808;2022-11-14T02:13:43;96521.44;;;1.59;85.57
24160;BME280;62385;41.594;23.808;2022-11-14T02:16:28;96518.16;;;1.55;85.82
24160;BME280;62385;41.594;23.808;2022-11-14T02:19:14;96507.53;;;1.72;85.39
24160;BME280;62385;41.594;23.808;2022-11-14T02:21:58;96503.50;;;1.67;86.11
24160;BME280;62385;41.594;23.808;2022-11-14T02:24:43;96508.81;;;1.51;86.47
24160;BME280;62385;41.594;23.808;2022-11-14T02:27:29;96502.44;;;1.55;86.41
24160;BME280;62385;41.594;23.808;2022-11-14T02:30:20;96501.53;;;1.56;86.40
24160;BME280;62385;41.594;23.808;2022-11-14T02:33:05;96504.53;;;1.78;86.08
24160;BME280;62385;41.594;23.808;2022-11-14T02:35:49;96505.22;;;1.82;86.40
24160;BME280;62385;41.594;23.808;2022-11-14T02:38:33;96504.16;;;1.70;86.33
24160;BME280;62385;41.594;23.808;2022-11-14T02:41:17;96501.53;;;1.56;87.22
24160;BME280;62385;41.594;23.808;2022-11-14T02:44:03;96508.00;;;1.65;86.58
24160;BME280;62385;41.594;23.808;2022-11-14T02:46:47;96506.72;;;1.42;86.99
24160;BME280;62385;41.594;23.808;2022-11-14T02:49:32;96505.16;;;1.39;87.16
24160;BME280;62385;41.594;23.808;2022-11-14T02:52:17;96499.06;;;1.39;86.47
24160;BME280;62385;41.594;23.808;2022-11-14T02:55:01;96495.78;;;1.50;87.14
24160;BME280;62385;41.594;23.808;2022-11-14T02:57:46;96491.69;;;1.46;86.34
24160;BME280;62385;41.594;23.808;2022-11-14T03:00:31;96488.13;;;1.32;86.04
24160;BME280;62385;41.594;23.808;2022-11-14T03:03:15;96494.75;;;1.38;85.78
24160;BME280;62385;41.594;23.808;2022-11-14T03:06:00;96495.53;;;1.40;85.00
24160;BME280;62385;41.594;23.808;2022-11-14T03:08:44;96499.06;;;1.39;85.56
24160;BME280;62385;41.594;23.808;2022-11-14T03:11:30;96495.47;;;1.26;85.28
24160;BME280;62385;41.594;23.808;2022-11-14T03:14:14;96496.38;;;1.11;86.62
24160;BME280;62385;41.594;23.808;2022-11-14T03:16:57;96485.59;;;1.01;87.07
24160;BME280;62385;41.594;23.808;2022-11-14T03:19:42;96486.63;;;0.99;87.76
24160;BME280;62385;41.594;23.808;2022-11-14T03:22:27;96477.53;;;0.90;87.76
24160;BME280;62385;41.594;23.808;2022-11-14T03:25:11;96485.78;;;0.98;87.42
24160;BME280;62385;41.594;23.808;2022-11-14T03:27:56;96479.66;;;1.13;85.06
24160;BME280;62385;41.594;23.808;2022-11-14T03:30:40;96478.13;;;0.95;85.36
24160;BME280;62385;41.594;23.808;2022-11-14T03:33:24;96477.88;;;1.14;85.18
24160;BME280;62385;41.594;23.808;2022-11-14T03:36:09;96473.84;;;1.08;85.53
24160;BME280;62385;41.594;23.808;2022-11-14T03:38:53;96472.41;;;1.18;85.29
24160;BME280;62385;41.594;23.808;2022-11-14T03:41:38;96467.09;;;1.20;84.95
24160;BME280;62385;41.594;23.808;2022-11-14T03:44:24;96471.09;;;1.25;85.49
24160;BME280;62385;41.594;23.808;2022-11-14T03:47:07;96461.13;;;1.32;84.40
24160;BME280;62385;41.594;23.808;2022-11-14T03:49:52;96463.50;;;1.07;84.60
24160;BME280;62385;41.594;23.808;2022-11-14T03:52:36;96471.09;;;0.96;85.31
24160;BME280;62385;41.594;23.808;2022-11-14T03:55:20;96470.50;;;1.06;85.10
24160;BME280;62385;41.594;23.808;2022-11-14T03:58:04;96474.81;;;1.07;85.36
24160;BME280;62385;41.594;23.808;2022-11-14T04:00:48;96470.75;;;1.02;84.85
24160;BME280;62385;41.594;23.808;2022-11-14T04:03:33;96463.97;;;0.83;86.01
24160;BME280;62385;41.594;23.808;2022-11-14T04:06:17;96469.81;;;0.73;85.59
24160;BME280;62385;41.594;23.808;2022-11-14T04:09:01;96466.19;;;0.75;86.34
24160;BME280;62385;41.594;23.808;2022-11-14T04:11:46;96459.56;;;0.70;85.93
24160;BME280;62385;41.594;23.808;2022-11-14T04:14:31;96461.81;;;1.06;85.76
24160;BME280;62385;41.594;23.808;2022-11-14T04:17:15;96473.38;;;1.31;86.46
24160;BME280;62385;41.594;23.808;2022-11-14T04:20:00;96470.34;;;1.23;86.22
24160;BME280;62385;41.594;23.808;2022-11-14T04:22:45;96471.09;;;0.96;86.46
24160;BME280;62385;41.594;23.808;2022-11-14T04:25:29;96462.81;;;0.73;85.62
24160;BME280;62385;41.594;23.808;2022-11-14T04:28:13;96474.47;;;0.68;85.57
24160;BME280;62385;41.594;23.808;2022-11-14T04:30:58;96475.72;;;0.76;86.13
24160;BME280;62385;41.594;23.808;2022-11-14T04:33:43;96481.13;;;0.73;85.69
24160;BME280;62385;41.594;23.808;2022-11-14T04:36:29;96475.53;;;0.79;86.40
24160;BME280;62385;41.594;23.808;2022-11-14T04:39:12;96483.81;;;0.72;88.69
24160;BME280;62385;41.594;23.808;2022-11-14T04:41:56;96487.88;;;0.91;87.55
24160;BME280;62385;41.594;23.808;2022-11-14T04:44:42;96484.41;;;1.07;88.03
24160;BME280;62385;41.594;23.808;2022-11-14T04:47:26;96485.34;;;1.06;87.85
24160;BME280;62385;41.594;23.808;2022-11-14T04:50:10;96489.94;;;0.86;87.47
24160;BME280;62385;41.594;23.808;2022-11-14T04:52:55;96478.66;;;0.86;87.65
24160;BME280;62385;41.594;23.808;2022-11-14T04:55:38;96483.78;;;0.87;87.83
24160;BME280;62385;41.594;23.808;2022-11-14T04:58:23;96488.69;;;0.62;88.15
24160;BME280;62385;41.594;23.808;2022-11-14T05:01:10;96488.69;;;0.62;87.52
24160;BME280;62385;41.594;23.808;2022-11-14T05:03:55;96488.28;;;1.00;88.88
24160;BME280;62385;41.594;23.808;2022-11-14T05:06:39;96481.41;;;0.99;87.01
24160;BME280;62385;41.594;23.808;2022-11-14T05:09:24;96475.44;;;0.81;87.42
24160;BME280;62385;41.594;23.808;2022-11-14T05:12:08;96485.28;;;0.91;86.00
24160;BME280;62385;41.594;23.808;2022-11-14T05:14:52;96475.00;;;0.88;86.28
24160;BME280;62385;41.594;23.808;2022-11-14T05:17:36;96480.28;;;0.73;87.28
24160;BME280;62385;41.594;23.808;2022-11-14T05:20:20;96480.03;;;0.62;86.51
24160;BME280;62385;41.594;23.808;2022-11-14T05:23:04;96486.19;;;0.61;85.99
24160;BME280;62385;41.594;23.808;2022-11-14T05:26:18;96483.72;;;0.73;85.55
24160;BME280;62385;41.594;23.808;2022-11-14T05:29:02;96466.56;;;0.38;83.93
24160;BME280;62385;41.594;23.808;2022-11-14T05:31:47;96479.53;;;0.55;85.51
24160;BME280;62385;41.594;23.808;2022-11-14T05:34:30;96480.94;;;0.76;85.65
24160;BME280;62385;41.594;23.808;2022-11-14T05:37:15;96479.25;;;0.75;84.96
24160;BME280;62385;41.594;23.808;2022-11-14T05:40:00;96483.22;;;0.67;84.08
24160;BME280;62385;41.594;23.808;2022-11-14T05:42:44;96489.22;;;0.69;84.28
24160;BME280;62385;41.594;23.808;2022-11-14T05:45:30;96495.44;;;0.82;85.44
24160;BME280;62385;41.594;23.808;2022-11-14T05:48:13;96482.31;;;0.98;85.50
24160;BME280;62385;41.594;23.808;2022-11-14T05:51:00;96479.78;;;0.96;85.21
24160;BME280;62385;41.594;23.808;2022-11-14T05:53:44;96478.53;;;0.87;85.50
24160;BME280;62385;41.594;23.808;2022-11-14T05:56:30;96482.41;;;0.96;84.95
24160;BME280;62385;41.594;23.808;2022-11-14T05:59:14;96486.06;;;0.93;84.98
24160;BME280;62385;41.594;23.808;2022-11-14T06:01:58;96479.72;;;0.98;84.96
24160;BME280;62385;41.594;23.808;2022-11-14T06:04:42;96479.66;;;1.13;84.67
24160;BME280;62385;41.594;23.808;2022-11-14T06:07:27;96485.78;;;0.98;84.86
24160;BME280;62385;41.594;23.808;2022-11-14T06:10:11;96482.81;;;1.04;85.99
24160;BME280;62385;41.594;23.808;2022-11-14T06:12:56;96489.97;;;1.01;85.94
24160;BME280;62385;41.594;23.808;2022-11-14T06:15:42;96493.00;;;1.09;85.31
24160;BME280;62385;41.594;23.808;2022-11-14T06:18:26;96491.19;;;0.95;85.36
24160;BME280;62385;41.594;23.808;2022-11-14T06:21:19;96486.84;;;1.10;84.82
24160;BME280;62385;41.594;23.808;2022-11-14T06:24:03;96492.13;;;1.24;84.95
24160;BME280;62385;41.594;23.808;2022-11-14T06:26:47;96487.28;;;1.02;85.45
24160;BME280;62385;41.594;23.808;2022-11-14T06:29:32;96494.22;;;1.03;85.13
24160;BME280;62385;41.594;23.808;2022-11-14T06:32:16;96489.84;;;1.18;86.21
24160;BME280;62385;41.594;23.808;2022-11-14T06:35:00;96492.88;;;1.26;85.61
24160;BME280;62385;41.594;23.808;2022-11-14T06:37:44;96491.09;;;1.26;85.79
24160;BME280;62385;41.594;23.808;2022-11-14T06:40:28;96500.75;;;1.40;85.14
24160;BME280;62385;41.594;23.808;2022-11-14T06:43:12;96489.72;;;1.49;85.70
24160;BME280;62385;41.594;23.808;2022-11-14T06:45:56;96486.91;;;1.38;85.28
24160;BME280;62385;41.594;23.808;2022-11-14T06:48:40;96492.53;;;1.32;84.96
24160;BME280;62385;41.594;23.808;2022-11-14T06:51:24;96479.81;;;1.54;85.92
24160;BME280;62385;41.594;23.808;2022-11-14T06:54:10;96481.44;;;1.57;85.18
24160;BME280;62385;41.594;23.808;2022-11-14T06:56:55;96481.31;;;1.44;85.62
24160;BME280;62385;41.594;23.808;2022-11-14T06:59:39;96470.88;;;1.72;85.54
24160;BME280;62385;41.594;23.808;2022-11-14T07:02:23;96476.41;;;1.82;85.76
24160;BME280;62385;41.594;23.808;2022-11-14T07:05:07;96475.19;;;2.02;85.66
24160;BME280;62385;41.594;23.808;2022-11-14T07:07:51;96476.56;;;2.07;85.60
24160;BME280;62385;41.594;23.808;2022-11-14T07:10:35;96463.53;;;2.20;84.76
24160;BME280;62385;41.594;23.808;2022-11-14T07:13:19;96469.53;;;2.08;86.01
24160;BME280;62385;41.594;23.808;2022-11-14T07:16:04;96476.13;;;2.42;85.08
24160;BME280;62385;41.594;23.808;2022-11-14T07:18:48;96468.41;;;2.26;84.60
24160;BME280;62385;41.594;23.808;2022-11-14T07:21:32;96474.78;;;2.22;85.08
24160;BME280;62385;41.594;23.808;2022-11-14T07:24:17;96474.50;;;2.26;85.03
24160;BME280;62385;41.594;23.808;2022-11-14T07:27:01;96475.81;;;2.05;85.97
24160;BME280;62385;41.594;23.808;2022-11-14T07:29:45;96460.03;;;2.07;85.61
24160;BME280;62385;41.594;23.808;2022-11-14T07:32:29;96458.66;;;2.28;85.97
24160;BME280;62385;41.594;23.808;2022-11-14T07:35:13;96457.50;;;2.46;84.84
24160;BME280;62385;41.594;23.808;2022-11-14T07:38:02;96450.34;;;2.62;84.97
24160;BME280;62385;41.594;23.808;2022-11-14T07:40:56;96449.53;;;2.74;85.52
24160;BME280;62385;41.594;23.808;2022-11-14T07:43:41;96450.72;;;2.83;85.34
24160;BME280;62385;41.594;23.808;2022-11-14T07:46:25;96444.03;;;2.92;85.94
24160;BME280;62385;41.594;23.808;2022-11-14T07:49:09;96437.47;;;3.11;85.94
24160;BME280;62385;41.594;23.808;2022-11-14T07:51:53;96434.88;;;3.24;86.23
24160;BME280;62385;41.594;23.808;2022-11-14T07:54:38;96432.69;;;3.31;86.18
24160;BME280;62385;41.594;23.808;2022-11-14T07:57:22;96433.63;;;3.42;86.22
24160;BME280;62385;41.594;23.808;2022-11-14T08:00:07;96425.44;;;3.47;86.16
24160;BME280;62385;41.594;23.808;2022-11-14T08:02:52;96419.44;;;3.57;86.40
24160;BME280;62385;41.594;23.808;2022-11-14T08:05:37;96417.13;;;3.65;85.99
24160;BME280;62385;41.594;23.808;2022-11-14T08:08:21;96420.59;;;3.66;86.06
24160;BME280;62385;41.594;23.808;2022-11-14T08:11:05;96414.94;;;3.59;86.41
24160;BME280;62385;41.594;23.808;2022-11-14T08:13:49;96403.88;;;3.92;84.85
24160;BME280;62385;41.594;23.808;2022-11-14T08:16:34;96403.88;;;3.92;85.56
24160;BME280;62385;41.594;23.808;2022-11-14T08:19:19;96407.16;;;4.19;84.53
24160;BME280;62385;41.594;23.808;2022-11-14T08:22:05;96404.66;;;4.18;85.47
24160;BME280;62385;41.594;23.808;2022-11-14T08:24:50;96395.81;;;4.19;86.48
24160;BME280;62385;41.594;23.808;2022-11-14T08:27:36;96397.13;;;4.37;85.38
24160;BME280;62385;41.594;23.808;2022-11-14T08:30:19;96399.16;;;4.34;86.29
24160;BME280;62385;41.594;23.808;2022-11-14T08:33:04;96395.44;;;4.36;86.23
24160;BME280;62385;41.594;23.808;2022-11-14T08:35:49;96392.94;;;4.35;86.41
24160;BME280;62385;41.594;23.808;2022-11-14T08:38:33;96398.97;;;4.48;86.30
24160;BME280;62385;41.594;23.808;2022-11-14T08:41:17;96387.78;;;4.81;83.52
24160;BME280;62385;41.594;23.808;2022-11-14T08:44:01;96389.84;;;4.88;83.92
24160;BME280;62385;41.594;23.808;2022-11-14T08:46:47;96387.88;;;5.03;83.82
24160;BME280;62385;41.594;23.808;2022-11-14T08:49:32;96376.88;;;5.09;83.82
24160;BME280;62385;41.594;23.808;2022-11-14T08:52:16;96380.63;;;5.18;83.94
24160;BME280;62385;41.594;23.808;2022-11-14T08:55:02;96370.94;;;5.29;82.24
24160;BME280;62385;41.594;23.808;2022-11-14T08:57:46;96365.69;;;5.29;82.37
24160;BME280;62385;41.594;23.808;2022-11-14T09:00:30;96369.41;;;5.49;81.34
24160;BME280;62385;41.594;23.808;2022-11-14T09:03:14;96367.88;;;5.46;81.55
24160;BME280;62385;41.594;23.808;2022-11-14T09:05:59;96360.44;;;5.51;80.82
24160;BME280;62385;41.594;23.808;2022-11-14T09:08:44;96358.78;;;5.62;80.12
24160;BME280;62385;41.594;23.808;2022-11-14T09:11:30;96350.84;;;5.73;80.61
24160;BME280;62385;41.594;23.808;2022-11-14T09:14:14;96344.63;;;6.07;79.34
24160;BME280;62385;41.594;23.808;2022-11-14T09:16:58;96338.66;;;5.94;80.21
24160;BME280;62385;41.594;23.808;2022-11-14T09:19:43;96329.31;;;6.01;78.78
24160;BME280;62385;41.594;23.808;2022-11-14T09:22:27;96337.06;;;6.14;78.54
24160;BME280;62385;41.594;23.808;2022-11-14T09:25:11;96328.53;;;6.21;79.21
24160;BME280;62385;41.594;23.808;2022-11-14T09:27:56;96317.78;;;6.24;77.71
24160;BME280;62385;41.594;23.808;2022-11-14T09:30:41;96310.59;;;6.47;76.44
24160;BME280;62385;41.594;23.808;2022-11-14T09:33:25;96321.84;;;6.60;77.23
24160;BME280;62385;41.594;23.808;2022-11-14T09:36:11;96310.63;;;6.79;76.77
24160;BME280;62385;41.594;23.808;2022-11-14T09:38:58;96298.75;;;6.94;76.41
24160;BME280;62385;41.594;23.808;2022-11-14T09:42:00;96288.84;;;7.07;75.95
24160;BME280;62385;41.594;23.808;2022-11-14T09:45:00;96281.50;;;7.11;75.33
24160;BME280;62385;41.594;23.808;2022-11-14T09:47:49;96278.28;;;7.37;74.99
24160;BME280;62385;41.594;23.808;2022-11-14T09:50:41;96265.13;;;7.47;74.47
24160;BME280;62385;41.594;23.808;2022-11-14T09:54:04;96263.22;;;7.59;72.91
24160;BME280;62385;41.594;23.808;2022-11-14T09:56:50;96256.50;;;7.85;72.59
24160;BME280;62385;41.594;23.808;2022-11-14T09:59:34;96258.03;;;7.87;71.10
24160;BME280;62385;41.594;23.808;2022-11-14T10:11:48;96233.75;;;8.22;67.70
24160;BME280;62385;41.594;23.808;2022-11-14T10:14:46;96232.50;;;8.26;66.56
24160;BME280;62385;41.594;23.808;2022-11-14T10:20:25;96226.25;;;8.75;66.54
24160;BME280;62385;41.594;23.808;2022-11-14T10:23:43;96217.91;;;8.51;67.76
24160;BME280;62385;41.594;23.808;2022-11-14T10:26:26;96211.22;;;8.47;66.11
24160;BME280;62385;41.594;23.808;2022-11-14T10:29:37;96204.53;;;8.72;66.47
24160;BME280;62385;41.594;23.808;2022-11-14T10:32:37;96200.75;;;8.74;66.02
24160;BME280;62385;41.594;23.808;2022-11-14T10:35:37;96194.59;;;8.93;65.11
24160;BME280;62385;41.594;23.808;2022-11-14T10:38:36;96187.06;;;8.89;64.97
24160;BME280;62385;41.594;23.808;2022-11-14T10:41:24;96186.94;;;8.90;67.25
24160;BME280;62385;41.594;23.808;2022-11-14T10:44:16;96177.47;;;9.24;65.37
24160;BME280;62385;41.594;23.808;2022-11-14T10:47:06;96173.59;;;9.19;65.49
24160;BME280;62385;41.594;23.808;2022-11-14T10:49:54;96176.72;;;9.32;65.07
24160;BME280;62385;41.594;23.808;2022-11-14T10:52:45;96179.97;;;9.26;65.51
24160;BME280;62385;41.594;23.808;2022-11-14T10:55:30;96172.88;;;9.54;63.04
24160;BME280;62385;41.594;23.808;2022-11-14T10:58:14;96163.25;;;9.53;64.94
24160;BME280;62385;41.594;23.808;2022-11-14T11:01:37;96161.78;;;9.86;63.20
24160;BME280;62385;41.594;23.808;2022-11-14T11:04:30;96154.75;;;9.77;63.68
24160;BME280;62385;41.594;23.808;2022-11-14T11:07:23;96149.75;;;9.91;63.71
24160;BME280;62385;41.594;23.808;2022-11-14T11:10:26;96143.59;;;9.91;61.97
24160;BME280;62385;41.594;23.808;2022-11-14T11:13:35;96132.94;;;10.36;60.37
24160;BME280;62385;41.594;23.808;2022-11-14T11:16:22;96135.97;;;10.41;61.01
24160;BME280;62385;41.594;23.808;2022-11-14T11:19:22;96135.38;;;10.47;58.53
24160;BME280;62385;41.594;23.808;2022-11-14T11:25:29;96129.28;;;10.54;60.06
24160;BME280;62385;41.594;23.808;2022-11-14T11:28:20;96123.41;;;10.43;62.09
24160;BME280;62385;41.594;23.808;2022-11-14T11:31:09;96122.38;;;10.44;61.91
24160;BME280;62385;41.594;23.808;2022-11-14T11:33:54;96111.94;;;10.94;59.32
24160;BME280;62385;41.594;23.808;2022-11-14T11:36:50;96108.44;;;10.93;59.45
24160;BME280;62385;41.594;23.808;2022-11-14T11:39:44;96107.28;;;10.88;59.02
24160;BME280;62385;41.594;23.808;2022-11-14T11:45:22;96105.78;;;11.27;57.17
24160;BME280;62385;41.594;23.808;2022-11-14T11:48:14;96102.88;;;11.04;56.96
24160;BME280;62385;41.594;23.808;2022-11-14T11:51:02;96100.59;;;11.09;57.83
24160;BME280;62385;41.594;23.808;2022-11-14T11:54:03;96093.56;;;11.42;56.05
24160;BME280;62385;41.594;23.808;2022-11-14T11:56:54;96094.66;;;11.24;56.68
24160;BME280;62385;41.594;23.808;2022-11-14T11:59:44;96087.66;;;11.23;55.49
24160;BME280;62385;41.594;23.808;2022-11-14T12:02:30;96085.47;;;11.68;52.44
24160;BME280;62385;41.594;23.808;2022-11-14T12:08:07;96081.41;;;11.98;51.62
24160;BME280;62385;41.594;23.808;2022-11-14T12:10:56;96078.44;;;12.33;52.11
24160;BME280;62385;41.594;23.808;2022-11-14T12:14:03;96074.13;;;12.24;53.38
24160;BME280;62385;41.594;23.808;2022-11-14T12:26:01;96075.59;;;12.51;55.66
24160;BME280;62385;41.594;23.808;2022-11-14T12:29:16;96075.56;;;12.59;56.49
24160;BME280;62385;41.594;23.808;2022-11-14T12:36:07;96068.59;;;12.58;55.29
24160;BME280;62385;41.594;23.808;2022-11-14T12:39:27;96061.09;;;12.62;55.19
24160;BME280;62385;41.594;23.808;2022-11-14T12:42:12;96063.94;;;12.60;54.19
24160;BME280;62385;41.594;23.808;2022-11-14T12:45:02;96061.03;;;12.86;54.37
24160;BME280;62385;41.594;23.808;2022-11-14T14:38:08;96047.16;;;12.19;57.00
24160;BME280;62385;41.594;23.808;2022-11-14T14:40:39;96044.66;;;12.10;57.72
24160;BME280;62385;41.594;23.808;2022-11-14T14:43:33;96033.34;;;11.91;57.53
24160;BME280;62385;41.594;23.808;2022-11-14T14:46:29;96040.94;;;11.54;59.78
24160;BME280;62385;41.594;23.808;2022-11-14T14:49:21;96041.88;;;10.95;64.58
24160;BME280;62385;41.594;23.808;2022-11-14T14:52:27;96036.50;;;10.53;66.98
24160;BME280;62385;41.594;23.808;2022-11-14T14:55:23;96040.31;;;10.25;67.76
24160;BME280;62385;41.594;23.808;2022-11-14T15:01:14;96046.94;;;9.85;69.04
24160;BME280;62385;41.594;23.808;2022-11-14T15:04:07;96047.63;;;9.87;68.65
24160;BME280;62385;41.594;23.808;2022-11-14T15:07:00;96048.44;;;9.70;68.92
24160;BME280;62385;41.594;23.808;2022-11-14T15:09:53;96042.91;;;9.46;69.63
24160;BME280;62385;41.594;23.808;2022-11-14T15:12:39;96056.22;;;9.36;70.67
24160;BME280;62385;41.594;23.808;2022-11-14T15:15:24;96049.72;;;9.31;70.22
24160;BME280;62385;41.594;23.808;2022-11-14T15:18:22;96051.03;;;9.17;70.26
24160;BME280;62385;41.594;23.808;2022-11-14T15:21:22;96057.56;;;8.95;71.57
24160;BME280;62385;41.594;23.808;2022-11-14T15:26:56;96053.00;;;8.88;71.50
24160;BME280;62385;41.594;23.808;2022-11-14T15:29:46;96056.28;;;8.72;72.14
24160;BME280;62385;41.594;23.808;2022-11-14T15:32:30;96050.75;;;8.65;72.08
24160;BME280;62385;41.594;23.808;2022-11-14T15:43:59;96064.97;;;8.55;72.07
24160;BME280;62385;41.594;23.808;2022-11-14T15:46:47;96062.63;;;8.52;72.16
24160;BME280;62385;41.594;23.808;2022-11-14T15:49:33;96073.53;;;8.39;72.72
24160;BME280;62385;41.594;23.808;2022-11-14T15:52:26;96071.31;;;8.34;72.69
24160;BME280;62385;41.594;23.808;2022-11-14T15:55:17;96072.41;;;8.22;73.42
24160;BME280;62385;41.594;23.808;2022-11-14T15:58:02;96080.63;;;8.19;73.44
24160;BME280;62385;41.594;23.808;2022-11-14T16:00:48;96080.75;;;8.27;72.18
24160;BME280;62385;41.594;23.808;2022-11-14T16:03:34;96090.97;;;8.32;72.07
24160;BME280;62385;41.594;23.808;2022-11-14T16:06:19;96094.25;;;8.24;72.58
24160;BME280;62385;41.594;23.808;2022-11-14T16:09:03;96089.00;;;7.96;73.07
24160;BME280;62385;41.594;23.808;2022-11-14T16:11:48;96093.75;;;7.73;74.50
24160;BME280;62385;41.594;23.808;2022-11-14T16:14:33;96100.13;;;7.61;74.61
24160;BME280;62385;41.594;23.808;2022-11-14T16:17:17;96099.31;;;7.70;73.89
24160;BME280;62385;41.594;23.808;2022-11-14T16:20:04;96092.63;;;7.56;74.52
24160;BME280;62385;41.594;23.808;2022-11-14T16:22:49;96092.19;;;7.61;74.64
24160;BME280;62385;41.594;23.808;2022-11-14T16:25:36;96096.63;;;7.51;74.21
24160;BME280;62385;41.594;23.808;2022-11-14T16:28:21;96096.63;;;7.51;74.40
24160;BME280;62385;41.594;23.808;2022-11-14T16:31:10;96093.00;;;7.42;74.91
24160;BME280;62385;41.594;23.808;2022-11-14T16:33:55;96100.78;;;7.34;75.07
24160;BME280;62385;41.594;23.808;2022-11-14T16:36:40;96097.69;;;7.29;75.21
24160;BME280;62385;41.594;23.808;2022-11-14T16:39:25;96102.25;;;7.17;75.87
24160;BME280;62385;41.594;23.808;2022-11-14T16:42:09;96095.25;;;6.97;76.57
24160;BME280;62385;41.594;23.808;2022-11-14T16:45:01;96094.81;;;6.92;76.65
24160;BME280;62385;41.594;23.808;2022-11-14T16:47:48;96093.00;;;6.83;76.55
24160;BME280;62385;41.594;23.808;2022-11-14T16:50:32;96093.56;;;6.86;77.11
24160;BME280;62385;41.594;23.808;2022-11-14T16:53:17;96099.53;;;6.88;76.87
24160;BME280;62385;41.594;23.808;2022-11-14T16:56:01;96101.75;;;6.93;76.77
24160;BME280;62385;41.594;23.808;2022-11-14T16:58:46;96105.47;;;6.81;77.41
24160;BME280;62385;41.594;23.808;2022-11-14T17:01:30;96109.78;;;6.82;77.77
24160;BME280;62385;41.594;23.808;2022-11-14T17:04:15;96114.78;;;6.55;78.58
24160;BME280;62385;41.594;23.808;2022-11-14T17:07:00;96109.09;;;6.49;78.63
24160;BME280;62385;41.594;23.808;2022-11-14T17:09:44;96107.13;;;6.52;78.50
24160;BME280;62385;41.594;23.808;2022-11-14T17:12:28;96104.84;;;6.37;78.67
24160;BME280;62385;41.594;23.808;2022-11-14T17:15:13;96105.47;;;6.50;78.21
24160;BME280;62385;41.594;23.808;2022-11-14T17:17:57;96109.47;;;6.45;79.18
24160;BME280;62385;41.594;23.808;2022-11-14T17:20:42;96105.72;;;6.47;78.69
24160;BME280;62385;41.594;23.808;2022-11-14T17:23:26;96106.94;;;6.43;78.07
24160;BME280;62385;41.594;23.808;2022-11-14T17:26:12;96098.28;;;6.32;78.52
24160;BME280;62385;41.594;23.808;2022-11-14T17:28:56;96107.34;;;6.39;78.69